Airfield :
LOGIN :

Register | Disclaimer

   EN    FR    IT 

 










Legend :    VFR   Marginal VFR   IFR   Intensive IFR   Very Intensive IFR
Visi :
Ceiling :
>= 8 km
>= 3000ft
5 to 8 km
1000 to 3000 ft
1500m to 5 km
500 to 1000 ft
800 to 1500m
200 to 500 ft
< 800m
< 200 ft
Symbols :   Thunderstorms  Fog  Heavy snow  Heavy precipitations  Wind > 20 kt
SIGMETs :     Misc.  Thunderstorms  Icing  Turbulence  Mountain Waves  Volcanic Ashes







- Airport Elevation : 1860 ft
- IATA code : GRX


LEGR - Granada

CURRENT METAR :
  • 160730Z VRB01KT CAVOK 22/16 Q1018

EXPIRED METARs :
  • 160700Z VRB01KT CAVOK 20/16 Q1018
  • 160630Z 23001KT 9999 FEW070 19/16 Q1018
  • 160600Z 00000KT 9999 FEW070 18/16 Q1018
  • 160530Z VRB01KT 9999 FEW070 19/16 Q1018
  • 160500Z 00000KT 9999 FEW070 18/15 Q1018

TAF TAF LEGR
Valid from the 16 at 03:00 until the 17 at 03:00 UTC


160200Z 1603/1703 VRB02KT 9999 FEW060 TX33/1614Z TN17/1606Z
BECMG 1612/1614 36010KT
PROB30
TEMPO 1613/1620 32015G25KT TSRA SCT040CB
No reported NOTAMs for that airfield.
2 SIGMETs reported for the Madrid FIR (LECM) :
 
Embedded thunderstorms
LECM SIGMET 4 VALID 160700/160900 LEVA
LECM MADRID FIR/UIR EMBD TS OBS AT 0705Z WI N4135 W00211 - N4109 W00037 - N3851 W00117 - N3947 W00347 - N4135 W00211 TOP FL380 STNR NC=
Embedded thunderstorms
LECM SIGMET 3 VALID 160441/160700 LEVA
LECM MADRID FIR/UIR EMBD TS OBS AT 0441Z E OF LINE N4123 W00207 - N3750 W00424 TOP FL380 STNR NC=



MET'MAP, your aeronautical weather chart ! - Copyright ORBIFLY December 2007 - Disclaimer

ORBIFLY MET'MAP TEAM :

Programming & Development : Alexandra Zaïnal
Concept & Development : Baudouin d'Aumeries
Co-Development & Prog : Marc-Olivier Méhu
Technical & hardware support : Manuel Goepfert

Contact : metmap@orbifly.com




SOURCES & CREDITS :

   NOAA